sensor_id;sensor_type;location;lat;lon;timestamp;P1;durP1;ratioP1;P2;durP2;ratioP2
78027;SDS011;67235;45.638;11.714;2023-04-28T00:00:28;12.48;;;6.88;;
78027;SDS011;67235;45.638;11.714;2023-04-28T00:02:54;12.30;;;5.97;;
78027;SDS011;67235;45.638;11.714;2023-04-28T00:05:19;10.53;;;5.70;;
78027;SDS011;67235;45.638;11.714;2023-04-28T00:07:47;12.27;;;5.78;;
78027;SDS011;67235;45.638;11.714;2023-04-28T00:10:13;12.75;;;6.22;;
78027;SDS011;67235;45.638;11.714;2023-04-28T00:12:39;17.95;;;7.03;;
78027;SDS011;67235;45.638;11.714;2023-04-28T00:15:05;14.77;;;6.87;;
78027;SDS011;67235;45.638;11.714;2023-04-28T00:17:31;15.30;;;6.07;;
78027;SDS011;67235;45.638;11.714;2023-04-28T00:19:57;11.48;;;5.65;;
78027;SDS011;67235;45.638;11.714;2023-04-28T00:22:23;12.52;;;6.32;;
78027;SDS011;67235;45.638;11.714;2023-04-28T00:24:49;12.37;;;6.17;;
78027;SDS011;67235;45.638;11.714;2023-04-28T00:27:15;12.73;;;6.18;;
78027;SDS011;67235;45.638;11.714;2023-04-28T00:29:41;10.05;;;5.80;;
78027;SDS011;67235;45.638;11.714;2023-04-28T00:32:06;10.57;;;5.67;;
78027;SDS011;67235;45.638;11.714;2023-04-28T00:34:32;11.45;;;5.72;;
78027;SDS011;67235;45.638;11.714;2023-04-28T00:37:01;10.63;;;5.35;;
78027;SDS011;67235;45.638;11.714;2023-04-28T00:39:28;9.40;;;5.60;;
78027;SDS011;67235;45.638;11.714;2023-04-28T00:41:53;11.48;;;6.07;;
78027;SDS011;67235;45.638;11.714;2023-04-28T00:44:19;10.15;;;5.95;;
78027;SDS011;67235;45.638;11.714;2023-04-28T00:46:45;11.55;;;6.28;;
78027;SDS011;67235;45.638;11.714;2023-04-28T00:49:12;10.73;;;6.03;;
78027;SDS011;67235;45.638;11.714;2023-04-28T00:51:39;10.52;;;5.72;;
78027;SDS011;67235;45.638;11.714;2023-04-28T00:54:05;11.60;;;5.70;;
78027;SDS011;67235;45.638;11.714;2023-04-28T00:56:31;9.02;;;5.38;;
78027;SDS011;67235;45.638;11.714;2023-04-28T00:58:58;12.20;;;6.00;;
78027;SDS011;67235;45.638;11.714;2023-04-28T01:01:24;11.32;;;6.18;;
78027;SDS011;67235;45.638;11.714;2023-04-28T01:03:50;11.23;;;6.07;;
78027;SDS011;67235;45.638;11.714;2023-04-28T01:06:16;10.95;;;6.05;;
78027;SDS011;67235;45.638;11.714;2023-04-28T01:08:46;11.13;;;6.05;;
78027;SDS011;67235;45.638;11.714;2023-04-28T01:11:13;10.13;;;5.88;;
78027;SDS011;67235;45.638;11.714;2023-04-28T01:13:39;11.73;;;5.50;;
78027;SDS011;67235;45.638;11.714;2023-04-28T01:16:05;11.88;;;6.18;;
78027;SDS011;67235;45.638;11.714;2023-04-28T01:18:32;11.50;;;5.78;;
78027;SDS011;67235;45.638;11.714;2023-04-28T01:20:58;11.57;;;5.85;;
78027;SDS011;67235;45.638;11.714;2023-04-28T01:23:24;10.65;;;5.88;;
78027;SDS011;67235;45.638;11.714;2023-04-28T01:25:50;10.33;;;5.70;;
78027;SDS011;67235;45.638;11.714;2023-04-28T01:28:16;10.68;;;6.00;;
78027;SDS011;67235;45.638;11.714;2023-04-28T01:30:42;9.35;;;5.13;;
78027;SDS011;67235;45.638;11.714;2023-04-28T01:33:09;8.73;;;4.47;;
78027;SDS011;67235;45.638;11.714;2023-04-28T01:35:34;8.98;;;5.13;;
78027;SDS011;67235;45.638;11.714;2023-04-28T01:38:03;13.25;;;5.10;;
78027;SDS011;67235;45.638;11.714;2023-04-28T01:40:29;12.15;;;5.90;;
78027;SDS011;67235;45.638;11.714;2023-04-28T01:42:56;10.70;;;5.93;;
78027;SDS011;67235;45.638;11.714;2023-04-28T01:45:21;10.98;;;5.65;;
78027;SDS011;67235;45.638;11.714;2023-04-28T01:47:47;9.93;;;5.70;;
78027;SDS011;67235;45.638;11.714;2023-04-28T01:50:13;10.00;;;5.50;;
78027;SDS011;67235;45.638;11.714;2023-04-28T01:52:39;9.77;;;5.68;;
78027;SDS011;67235;45.638;11.714;2023-04-28T01:55:05;8.80;;;5.10;;
78027;SDS011;67235;45.638;11.714;2023-04-28T01:57:31;9.95;;;5.10;;
78027;SDS011;67235;45.638;11.714;2023-04-28T01:59:59;9.50;;;4.70;;
78027;SDS011;67235;45.638;11.714;2023-04-28T02:02:25;10.67;;;4.93;;
78027;SDS011;67235;45.638;11.714;2023-04-28T02:04:51;8.10;;;4.55;;
78027;SDS011;67235;45.638;11.714;2023-04-28T02:07:16;9.60;;;5.18;;
78027;SDS011;67235;45.638;11.714;2023-04-28T02:09:42;11.30;;;4.60;;
78027;SDS011;67235;45.638;11.714;2023-04-28T02:12:08;10.43;;;5.25;;
78027;SDS011;67235;45.638;11.714;2023-04-28T02:14:34;11.30;;;5.73;;
78027;SDS011;67235;45.638;11.714;2023-04-28T02:16:59;9.30;;;5.25;;
78027;SDS011;67235;45.638;11.714;2023-04-28T02:19:27;8.95;;;5.13;;
78027;SDS011;67235;45.638;11.714;2023-04-28T02:21:53;10.63;;;5.50;;
78027;SDS011;67235;45.638;11.714;2023-04-28T02:24:18;10.55;;;5.80;;
78027;SDS011;67235;45.638;11.714;2023-04-28T02:26:44;11.10;;;5.63;;
78027;SDS011;67235;45.638;11.714;2023-04-28T02:29:10;11.23;;;5.63;;
78027;SDS011;67235;45.638;11.714;2023-04-28T02:31:36;10.63;;;5.82;;
78027;SDS011;67235;45.638;11.714;2023-04-28T02:34:02;10.27;;;5.95;;
78027;SDS011;67235;45.638;11.714;2023-04-28T02:36:27;10.02;;;5.25;;
78027;SDS011;67235;45.638;11.714;2023-04-28T02:38:53;12.53;;;6.17;;
78027;SDS011;67235;45.638;11.714;2023-04-28T02:41:19;10.07;;;5.70;;
78027;SDS011;67235;45.638;11.714;2023-04-28T02:43:45;10.95;;;6.18;;
78027;SDS011;67235;45.638;11.714;2023-04-28T02:46:11;8.93;;;5.40;;
78027;SDS011;67235;45.638;11.714;2023-04-28T02:48:37;9.18;;;4.28;;
78027;SDS011;67235;45.638;11.714;2023-04-28T02:51:02;10.63;;;5.47;;
78027;SDS011;67235;45.638;11.714;2023-04-28T02:53:28;10.50;;;5.47;;
78027;SDS011;67235;45.638;11.714;2023-04-28T02:55:54;11.32;;;5.88;;
78027;SDS011;67235;45.638;11.714;2023-04-28T02:58:20;10.10;;;5.90;;
78027;SDS011;67235;45.638;11.714;2023-04-28T03:00:47;12.25;;;5.97;;
78027;SDS011;67235;45.638;11.714;2023-04-28T03:03:13;9.57;;;5.65;;
78027;SDS011;67235;45.638;11.714;2023-04-28T03:05:38;10.95;;;5.70;;
78027;SDS011;67235;45.638;11.714;2023-04-28T03:08:04;13.70;;;6.23;;
78027;SDS011;67235;45.638;11.714;2023-04-28T03:10:30;10.57;;;5.82;;
78027;SDS011;67235;45.638;11.714;2023-04-28T03:12:56;10.57;;;5.55;;
78027;SDS011;67235;45.638;11.714;2023-04-28T03:15:22;10.47;;;5.70;;
78027;SDS011;67235;45.638;11.714;2023-04-28T03:17:48;11.15;;;5.97;;
78027;SDS011;67235;45.638;11.714;2023-04-28T03:20:14;11.02;;;6.30;;
78027;SDS011;67235;45.638;11.714;2023-04-28T03:22:40;9.77;;;5.90;;
78027;SDS011;67235;45.638;11.714;2023-04-28T03:25:06;8.85;;;5.28;;
78027;SDS011;67235;45.638;11.714;2023-04-28T03:27:32;10.00;;;5.72;;
78027;SDS011;67235;45.638;11.714;2023-04-28T03:29:58;11.63;;;5.93;;
78027;SDS011;67235;45.638;11.714;2023-04-28T03:32:24;8.60;;;4.55;;
78027;SDS011;67235;45.638;11.714;2023-04-28T03:34:49;11.35;;;6.07;;
78027;SDS011;67235;45.638;11.714;2023-04-28T03:37:15;9.90;;;5.27;;
78027;SDS011;67235;45.638;11.714;2023-04-28T03:39:41;10.75;;;5.80;;
78027;SDS011;67235;45.638;11.714;2023-04-28T03:42:07;10.80;;;6.10;;
78027;SDS011;67235;45.638;11.714;2023-04-28T03:44:33;11.18;;;5.38;;
78027;SDS011;67235;45.638;11.714;2023-04-28T03:46:58;11.70;;;5.95;;
78027;SDS011;67235;45.638;11.714;2023-04-28T03:49:25;12.88;;;6.03;;
78027;SDS011;67235;45.638;11.714;2023-04-28T03:51:51;12.93;;;6.85;;
78027;SDS011;67235;45.638;11.714;2023-04-28T03:54:17;10.02;;;6.15;;
78027;SDS011;67235;45.638;11.714;2023-04-28T03:56:43;13.57;;;5.03;;
78027;SDS011;67235;45.638;11.714;2023-04-28T03:59:09;9.90;;;5.25;;
78027;SDS011;67235;45.638;11.714;2023-04-28T04:01:36;11.40;;;5.88;;
78027;SDS011;67235;45.638;11.714;2023-04-28T04:04:02;9.70;;;5.70;;
78027;SDS011;67235;45.638;11.714;2023-04-28T04:06:28;10.57;;;5.40;;
78027;SDS011;67235;45.638;11.714;2023-04-28T04:08:55;8.30;;;4.40;;
78027;SDS011;67235;45.638;11.714;2023-04-28T04:11:20;10.98;;;5.78;;
78027;SDS011;67235;45.638;11.714;2023-04-28T04:13:46;13.18;;;6.82;;
78027;SDS011;67235;45.638;11.714;2023-04-28T04:16:12;13.53;;;7.57;;
78027;SDS011;67235;45.638;11.714;2023-04-28T04:18:40;11.68;;;7.03;;
78027;SDS011;67235;45.638;11.714;2023-04-28T04:21:06;14.27;;;6.95;;
78027;SDS011;67235;45.638;11.714;2023-04-28T04:23:32;15.27;;;6.60;;
78027;SDS011;67235;45.638;11.714;2023-04-28T04:25:58;11.23;;;5.68;;
78027;SDS011;67235;45.638;11.714;2023-04-28T04:28:24;10.70;;;5.82;;
78027;SDS011;67235;45.638;11.714;2023-04-28T04:30:50;8.43;;;4.73;;
78027;SDS011;67235;45.638;11.714;2023-04-28T04:33:16;9.15;;;5.05;;
78027;SDS011;67235;45.638;11.714;2023-04-28T04:35:41;10.50;;;5.85;;
78027;SDS011;67235;45.638;11.714;2023-04-28T04:38:07;11.17;;;6.23;;
78027;SDS011;67235;45.638;11.714;2023-04-28T04:40:34;12.55;;;6.45;;
78027;SDS011;67235;45.638;11.714;2023-04-28T04:43:00;15.32;;;7.35;;
78027;SDS011;67235;45.638;11.714;2023-04-28T04:45:25;15.90;;;7.40;;
78027;SDS011;67235;45.638;11.714;2023-04-28T04:47:52;11.87;;;6.90;;
78027;SDS011;67235;45.638;11.714;2023-04-28T04:50:17;10.48;;;5.20;;
78027;SDS011;67235;45.638;11.714;2023-04-28T04:52:43;8.75;;;5.28;;
78027;SDS011;67235;45.638;11.714;2023-04-28T04:55:09;10.07;;;5.93;;
78027;SDS011;67235;45.638;11.714;2023-04-28T04:57:35;10.38;;;5.40;;
78027;SDS011;67235;45.638;11.714;2023-04-28T05:00:02;9.88;;;5.50;;
78027;SDS011;67235;45.638;11.714;2023-04-28T05:02:28;10.57;;;5.30;;
78027;SDS011;67235;45.638;11.714;2023-04-28T05:04:54;10.47;;;5.67;;
78027;SDS011;67235;45.638;11.714;2023-04-28T05:07:20;12.63;;;6.13;;
78027;SDS011;67235;45.638;11.714;2023-04-28T05:09:46;11.52;;;5.30;;
78027;SDS011;67235;45.638;11.714;2023-04-28T05:12:12;10.40;;;5.37;;
78027;SDS011;67235;45.638;11.714;2023-04-28T05:14:38;11.18;;;6.18;;
78027;SDS011;67235;45.638;11.714;2023-04-28T05:17:03;10.87;;;5.97;;
78027;SDS011;67235;45.638;11.714;2023-04-28T05:19:30;10.15;;;5.65;;
78027;SDS011;67235;45.638;11.714;2023-04-28T05:21:55;14.40;;;6.10;;
78027;SDS011;67235;45.638;11.714;2023-04-28T05:24:21;9.10;;;5.07;;
78027;SDS011;67235;45.638;11.714;2023-04-28T05:26:48;10.70;;;6.18;;
78027;SDS011;67235;45.638;11.714;2023-04-28T05:29:15;10.15;;;6.00;;
78027;SDS011;67235;45.638;11.714;2023-04-28T05:31:41;10.05;;;5.50;;
78027;SDS011;67235;45.638;11.714;2023-04-28T05:34:07;9.53;;;5.33;;
78027;SDS011;67235;45.638;11.714;2023-04-28T05:36:33;9.93;;;5.32;;
78027;SDS011;67235;45.638;11.714;2023-04-28T05:38:59;11.80;;;7.30;;
78027;SDS011;67235;45.638;11.714;2023-04-28T05:41:25;11.85;;;7.40;;
78027;SDS011;67235;45.638;11.714;2023-04-28T05:43:51;11.57;;;7.32;;
78027;SDS011;67235;45.638;11.714;2023-04-28T05:46:16;13.80;;;6.97;;
78027;SDS011;67235;45.638;11.714;2023-04-28T05:48:43;12.95;;;6.85;;
78027;SDS011;67235;45.638;11.714;2023-04-28T05:51:09;14.20;;;6.82;;
78027;SDS011;67235;45.638;11.714;2023-04-28T05:53:35;13.77;;;6.30;;
78027;SDS011;67235;45.638;11.714;2023-04-28T05:56:01;14.27;;;7.83;;
78027;SDS011;67235;45.638;11.714;2023-04-28T05:58:27;13.75;;;7.45;;
78027;SDS011;67235;45.638;11.714;2023-04-28T06:00:53;13.40;;;8.13;;
78027;SDS011;67235;45.638;11.714;2023-04-28T06:03:19;14.30;;;7.10;;
78027;SDS011;67235;45.638;11.714;2023-04-28T06:05:45;13.30;;;6.93;;
78027;SDS011;67235;45.638;11.714;2023-04-28T06:08:11;13.45;;;8.07;;
78027;SDS011;67235;45.638;11.714;2023-04-28T06:10:37;15.27;;;8.10;;
78027;SDS011;67235;45.638;11.714;2023-04-28T06:13:02;14.73;;;8.30;;
78027;SDS011;67235;45.638;11.714;2023-04-28T06:15:30;15.05;;;7.75;;
78027;SDS011;67235;45.638;11.714;2023-04-28T06:17:56;11.63;;;6.53;;
78027;SDS011;67235;45.638;11.714;2023-04-28T06:20:23;14.60;;;6.95;;
78027;SDS011;67235;45.638;11.714;2023-04-28T06:22:49;14.05;;;7.30;;
78027;SDS011;67235;45.638;11.714;2023-04-28T06:25:15;14.80;;;7.00;;
78027;SDS011;67235;45.638;11.714;2023-04-28T06:27:41;13.30;;;6.80;;
78027;SDS011;67235;45.638;11.714;2023-04-28T06:30:07;11.10;;;5.90;;
78027;SDS011;67235;45.638;11.714;2023-04-28T06:32:33;10.82;;;5.75;;
78027;SDS011;67235;45.638;11.714;2023-04-28T06:34:59;10.38;;;5.72;;
78027;SDS011;67235;45.638;11.714;2023-04-28T06:37:25;9.87;;;5.87;;
78027;SDS011;67235;45.638;11.714;2023-04-28T06:39:51;10.27;;;5.45;;
78027;SDS011;67235;45.638;11.714;2023-04-28T06:42:17;9.10;;;5.40;;
78027;SDS011;67235;45.638;11.714;2023-04-28T06:44:44;11.20;;;5.82;;
78027;SDS011;67235;45.638;11.714;2023-04-28T06:47:10;10.00;;;5.70;;
78027;SDS011;67235;45.638;11.714;2023-04-28T06:49:36;9.25;;;5.03;;
78027;SDS011;67235;45.638;11.714;2023-04-28T06:52:02;8.82;;;5.15;;
78027;SDS011;67235;45.638;11.714;2023-04-28T06:54:28;8.63;;;5.07;;
78027;SDS011;67235;45.638;11.714;2023-04-28T06:56:53;9.50;;;5.57;;
78027;SDS011;67235;45.638;11.714;2023-04-28T06:59:19;10.38;;;5.38;;
78027;SDS011;67235;45.638;11.714;2023-04-28T07:01:45;9.63;;;5.07;;
78027;SDS011;67235;45.638;11.714;2023-04-28T07:04:12;9.23;;;4.60;;
78027;SDS011;67235;45.638;11.714;2023-04-28T07:06:38;8.52;;;4.93;;
78027;SDS011;67235;45.638;11.714;2023-04-28T07:09:04;8.97;;;4.93;;
78027;SDS011;67235;45.638;11.714;2023-04-28T07:11:30;9.13;;;5.00;;
78027;SDS011;67235;45.638;11.714;2023-04-28T07:13:59;8.73;;;4.53;;
78027;SDS011;67235;45.638;11.714;2023-04-28T07:16:27;8.50;;;4.57;;
78027;SDS011;67235;45.638;11.714;2023-04-28T07:18:52;9.07;;;4.00;;
78027;SDS011;67235;45.638;11.714;2023-04-28T07:21:18;7.88;;;4.70;;
78027;SDS011;67235;45.638;11.714;2023-04-28T07:23:45;9.68;;;4.70;;
78027;SDS011;67235;45.638;11.714;2023-04-28T07:26:13;9.10;;;4.93;;
78027;SDS011;67235;45.638;11.714;2023-04-28T07:28:40;8.35;;;4.50;;
78027;SDS011;67235;45.638;11.714;2023-04-28T07:31:07;9.00;;;5.18;;
78027;SDS011;67235;45.638;11.714;2023-04-28T07:33:33;8.98;;;5.20;;
78027;SDS011;67235;45.638;11.714;2023-04-28T07:35:59;8.70;;;4.77;;
78027;SDS011;67235;45.638;11.714;2023-04-28T07:38:25;8.07;;;4.78;;
78027;SDS011;67235;45.638;11.714;2023-04-28T07:40:52;8.93;;;5.00;;
78027;SDS011;67235;45.638;11.714;2023-04-28T07:43:21;8.25;;;4.95;;
78027;SDS011;67235;45.638;11.714;2023-04-28T07:45:47;10.02;;;4.57;;
78027;SDS011;67235;45.638;11.714;2023-04-28T07:48:14;9.50;;;5.07;;
78027;SDS011;67235;45.638;11.714;2023-04-28T07:50:40;8.70;;;4.75;;
78027;SDS011;67235;45.638;11.714;2023-04-28T07:53:06;9.15;;;4.68;;
78027;SDS011;67235;45.638;11.714;2023-04-28T07:55:31;8.00;;;4.55;;
78027;SDS011;67235;45.638;11.714;2023-04-28T07:58:00;8.38;;;4.68;;
78027;SDS011;67235;45.638;11.714;2023-04-28T08:00:26;9.15;;;4.75;;
78027;SDS011;67235;45.638;11.714;2023-04-28T08:02:52;9.60;;;4.88;;
78027;SDS011;67235;45.638;11.714;2023-04-28T08:05:18;9.07;;;4.68;;
78027;SDS011;67235;45.638;11.714;2023-04-28T08:07:44;9.13;;;4.60;;
78027;SDS011;67235;45.638;11.714;2023-04-28T08:10:10;7.03;;;3.90;;
78027;SDS011;67235;45.638;11.714;2023-04-28T08:12:36;8.27;;;4.65;;
78027;SDS011;67235;45.638;11.714;2023-04-28T08:15:02;8.33;;;4.03;;
78027;SDS011;67235;45.638;11.714;2023-04-28T08:17:29;10.35;;;4.45;;
78027;SDS011;67235;45.638;11.714;2023-04-28T08:19:54;8.38;;;4.82;;
78027;SDS011;67235;45.638;11.714;2023-04-28T08:22:20;7.93;;;4.40;;
78027;SDS011;67235;45.638;11.714;2023-04-28T08:24:46;11.30;;;4.65;;
78027;SDS011;67235;45.638;11.714;2023-04-28T08:27:12;9.18;;;4.80;;
78027;SDS011;67235;45.638;11.714;2023-04-28T08:29:38;8.80;;;4.38;;
78027;SDS011;67235;45.638;11.714;2023-04-28T08:32:04;7.75;;;4.40;;
78027;SDS011;67235;45.638;11.714;2023-04-28T08:34:31;7.60;;;3.92;;
78027;SDS011;67235;45.638;11.714;2023-04-28T08:36:57;8.00;;;4.10;;
78027;SDS011;67235;45.638;11.714;2023-04-28T08:39:25;7.03;;;3.78;;
78027;SDS011;67235;45.638;11.714;2023-04-28T08:41:52;7.55;;;3.40;;
78027;SDS011;67235;45.638;11.714;2023-04-28T08:44:18;8.05;;;3.30;;
78027;SDS011;67235;45.638;11.714;2023-04-28T08:46:44;7.72;;;3.42;;
78027;SDS011;67235;45.638;11.714;2023-04-28T08:49:15;8.07;;;4.00;;
78027;SDS011;67235;45.638;11.714;2023-04-28T08:51:43;7.40;;;3.55;;
78027;SDS011;67235;45.638;11.714;2023-04-28T08:54:14;7.63;;;4.32;;
78027;SDS011;67235;45.638;11.714;2023-04-28T08:56:41;8.13;;;3.88;;
78027;SDS011;67235;45.638;11.714;2023-04-28T08:59:10;7.93;;;4.00;;
78027;SDS011;67235;45.638;11.714;2023-04-28T09:01:39;8.23;;;3.80;;
78027;SDS011;67235;45.638;11.714;2023-04-28T09:04:05;7.07;;;3.83;;
78027;SDS011;67235;45.638;11.714;2023-04-28T09:06:36;7.60;;;3.88;;
78027;SDS011;67235;45.638;11.714;2023-04-28T09:11:54;7.28;;;3.67;;
78027;SDS011;67235;45.638;11.714;2023-04-28T09:14:21;6.43;;;3.60;;
78027;SDS011;67235;45.638;11.714;2023-04-28T09:16:48;6.50;;;3.70;;
78027;SDS011;67235;45.638;11.714;2023-04-28T09:19:14;6.67;;;3.40;;
78027;SDS011;67235;45.638;11.714;2023-04-28T09:21:47;7.32;;;3.55;;
78027;SDS011;67235;45.638;11.714;2023-04-28T09:27:05;7.07;;;3.63;;
78027;SDS011;67235;45.638;11.714;2023-04-28T09:29:34;7.13;;;3.60;;
78027;SDS011;67235;45.638;11.714;2023-04-28T09:32:13;8.50;;;4.40;;
78027;SDS011;67235;45.638;11.714;2023-04-28T09:34:52;6.97;;;3.58;;
78027;SDS011;67235;45.638;11.714;2023-04-28T09:37:26;7.10;;;3.80;;
78027;SDS011;67235;45.638;11.714;2023-04-28T09:39:56;51.15;;;31.27;;
78027;SDS011;67235;45.638;11.714;2023-04-28T09:42:29;44.60;;;28.58;;
78027;SDS011;67235;45.638;11.714;2023-04-28T09:44:59;21.97;;;13.30;;
78027;SDS011;67235;45.638;11.714;2023-04-28T09:47:28;12.70;;;5.22;;
78027;SDS011;67235;45.638;11.714;2023-04-28T09:49:57;9.20;;;4.63;;
78027;SDS011;67235;45.638;11.714;2023-04-28T09:52:24;8.38;;;3.90;;
78027;SDS011;67235;45.638;11.714;2023-04-28T09:54:51;10.38;;;4.13;;
78027;SDS011;67235;45.638;11.714;2023-04-28T09:57:19;7.70;;;3.80;;
78027;SDS011;67235;45.638;11.714;2023-04-28T09:59:47;7.38;;;3.88;;
78027;SDS011;67235;45.638;11.714;2023-04-28T10:02:18;8.45;;;4.68;;
78027;SDS011;67235;45.638;11.714;2023-04-28T10:04:47;9.40;;;4.50;;
78027;SDS011;67235;45.638;11.714;2023-04-28T10:07:16;8.40;;;4.47;;
78027;SDS011;67235;45.638;11.714;2023-04-28T10:09:49;9.57;;;4.50;;
78027;SDS011;67235;45.638;11.714;2023-04-28T10:12:19;8.13;;;4.72;;
78027;SDS011;67235;45.638;11.714;2023-04-28T10:14:48;9.23;;;4.55;;
78027;SDS011;67235;45.638;11.714;2023-04-28T10:17:24;8.10;;;4.45;;
78027;SDS011;67235;45.638;11.714;2023-04-28T10:19:51;8.38;;;4.70;;
78027;SDS011;67235;45.638;11.714;2023-04-28T10:25:26;8.80;;;4.30;;
78027;SDS011;67235;45.638;11.714;2023-04-28T10:27:55;7.28;;;3.83;;
78027;SDS011;67235;45.638;11.714;2023-04-28T10:30:23;10.60;;;5.93;;
78027;SDS011;67235;45.638;11.714;2023-04-28T10:35:40;5.90;;;3.07;;
78027;SDS011;67235;45.638;11.714;2023-04-28T10:38:18;4.93;;;2.05;;
78027;SDS011;67235;45.638;11.714;2023-04-28T10:40:48;9.57;;;7.32;;
78027;SDS011;67235;45.638;11.714;2023-04-28T10:48:20;4.30;;;1.73;;
78027;SDS011;67235;45.638;11.714;2023-04-28T10:56:13;7.70;;;4.15;;
78027;SDS011;67235;45.638;11.714;2023-04-28T10:58:47;6.40;;;3.33;;
78027;SDS011;67235;45.638;11.714;2023-04-28T11:06:20;5.43;;;2.50;;
78027;SDS011;67235;45.638;11.714;2023-04-28T11:16:58;6.18;;;2.05;;
78027;SDS011;67235;45.638;11.714;2023-04-28T11:19:40;4.00;;;1.60;;
78027;SDS011;67235;45.638;11.714;2023-04-28T11:22:17;6.13;;;2.20;;
78027;SDS011;67235;45.638;11.714;2023-04-28T11:24:54;5.38;;;2.10;;
78027;SDS011;67235;45.638;11.714;2023-04-28T11:27:25;4.88;;;2.25;;
78027;SDS011;67235;45.638;11.714;2023-04-28T11:29:51;7.63;;;2.72;;
78027;SDS011;67235;45.638;11.714;2023-04-28T11:32:24;5.35;;;2.40;;
78027;SDS011;67235;45.638;11.714;2023-04-28T11:34:54;8.40;;;4.53;;
78027;SDS011;67235;45.638;11.714;2023-04-28T11:37:20;5.00;;;2.20;;
78027;SDS011;67235;45.638;11.714;2023-04-28T11:39:47;3.97;;;1.48;;
78027;SDS011;67235;45.638;11.714;2023-04-28T11:42:13;4.85;;;2.05;;
78027;SDS011;67235;45.638;11.714;2023-04-28T11:44:39;5.90;;;2.58;;
78027;SDS011;67235;45.638;11.714;2023-04-28T11:47:05;4.33;;;2.00;;
78027;SDS011;67235;45.638;11.714;2023-04-28T11:49:44;4.90;;;1.80;;
78027;SDS011;67235;45.638;11.714;2023-04-28T11:52:10;6.05;;;2.50;;
78027;SDS011;67235;45.638;11.714;2023-04-28T11:54:37;6.07;;;2.50;;
78027;SDS011;67235;45.638;11.714;2023-04-28T11:57:03;5.47;;;2.20;;
78027;SDS011;67235;45.638;11.714;2023-04-28T11:59:33;6.07;;;2.13;;
78027;SDS011;67235;45.638;11.714;2023-04-28T12:02:02;5.22;;;2.40;;
78027;SDS011;67235;45.638;11.714;2023-04-28T12:04:30;5.28;;;1.80;;
78027;SDS011;67235;45.638;11.714;2023-04-28T12:07:10;3.97;;;1.67;;
78027;SDS011;67235;45.638;11.714;2023-04-28T12:09:38;5.45;;;1.60;;
78027;SDS011;67235;45.638;11.714;2023-04-28T12:12:06;4.30;;;1.80;;
78027;SDS011;67235;45.638;11.714;2023-04-28T12:14:56;5.32;;;1.95;;
78027;SDS011;67235;45.638;11.714;2023-04-28T12:17:29;4.35;;;1.60;;
78027;SDS011;67235;45.638;11.714;2023-04-28T12:19:56;3.85;;;1.40;;
78027;SDS011;67235;45.638;11.714;2023-04-28T12:22:23;3.70;;;1.23;;
78027;SDS011;67235;45.638;11.714;2023-04-28T12:25:02;4.47;;;1.33;;
78027;SDS011;67235;45.638;11.714;2023-04-28T12:27:32;5.25;;;1.50;;
78027;SDS011;67235;45.638;11.714;2023-04-28T12:30:00;6.43;;;1.88;;
78027;SDS011;67235;45.638;11.714;2023-04-28T12:32:39;5.32;;;1.40;;
78027;SDS011;67235;45.638;11.714;2023-04-28T12:35:07;4.00;;;1.47;;
78027;SDS011;67235;45.638;11.714;2023-04-28T12:37:33;4.53;;;1.70;;
78027;SDS011;67235;45.638;11.714;2023-04-28T12:40:00;5.38;;;2.10;;
78027;SDS011;67235;45.638;11.714;2023-04-28T12:42:26;4.40;;;1.35;;
78027;SDS011;67235;45.638;11.714;2023-04-28T12:44:53;4.10;;;1.17;;
78027;SDS011;67235;45.638;11.714;2023-04-28T12:47:19;4.30;;;1.10;;
78027;SDS011;67235;45.638;11.714;2023-04-28T12:49:45;5.97;;;1.88;;
78027;SDS011;67235;45.638;11.714;2023-04-28T12:52:13;4.55;;;1.60;;
78027;SDS011;67235;45.638;11.714;2023-04-28T12:54:39;4.95;;;1.90;;
78027;SDS011;67235;45.638;11.714;2023-04-28T12:57:11;5.10;;;1.80;;
78027;SDS011;67235;45.638;11.714;2023-04-28T12:59:37;5.00;;;2.10;;
78027;SDS011;67235;45.638;11.714;2023-04-28T13:02:03;4.53;;;1.90;;
78027;SDS011;67235;45.638;11.714;2023-04-28T13:04:30;5.78;;;2.13;;
78027;SDS011;67235;45.638;11.714;2023-04-28T13:06:56;4.25;;;1.80;;
78027;SDS011;67235;45.638;11.714;2023-04-28T13:09:23;5.60;;;2.23;;
78027;SDS011;67235;45.638;11.714;2023-04-28T13:11:49;5.40;;;2.20;;
78027;SDS011;67235;45.638;11.714;2023-04-28T13:14:17;6.13;;;2.25;;
78027;SDS011;67235;45.638;11.714;2023-04-28T13:16:47;5.72;;;2.05;;
78027;SDS011;67235;45.638;11.714;2023-04-28T13:19:13;5.45;;;2.58;;
78027;SDS011;67235;45.638;11.714;2023-04-28T13:21:39;6.60;;;2.10;;
78027;SDS011;67235;45.638;11.714;2023-04-28T13:24:06;4.68;;;1.60;;
78027;SDS011;67235;45.638;11.714;2023-04-28T13:26:33;5.32;;;1.70;;
78027;SDS011;67235;45.638;11.714;2023-04-28T13:28:59;4.60;;;1.77;;
78027;SDS011;67235;45.638;11.714;2023-04-28T13:31:27;5.85;;;1.90;;
78027;SDS011;67235;45.638;11.714;2023-04-28T13:33:54;9.10;;;2.10;;
78027;SDS011;67235;45.638;11.714;2023-04-28T13:36:20;4.90;;;1.70;;
78027;SDS011;67235;45.638;11.714;2023-04-28T13:38:46;5.18;;;1.80;;
78027;SDS011;67235;45.638;11.714;2023-04-28T13:41:16;7.20;;;2.10;;
78027;SDS011;67235;45.638;11.714;2023-04-28T13:43:42;4.97;;;1.90;;
78027;SDS011;67235;45.638;11.714;2023-04-28T13:46:08;6.10;;;2.03;;
78027;SDS011;67235;45.638;11.714;2023-04-28T13:48:35;6.20;;;2.05;;
78027;SDS011;67235;45.638;11.714;2023-04-28T13:51:02;5.70;;;2.22;;
78027;SDS011;67235;45.638;11.714;2023-04-28T13:53:29;6.25;;;2.40;;
78027;SDS011;67235;45.638;11.714;2023-04-28T13:55:55;5.70;;;2.38;;
78027;SDS011;67235;45.638;11.714;2023-04-28T13:58:28;6.23;;;2.07;;
78027;SDS011;67235;45.638;11.714;2023-04-28T14:00:54;6.07;;;2.67;;
78027;SDS011;67235;45.638;11.714;2023-04-28T14:03:21;5.32;;;2.25;;
78027;SDS011;67235;45.638;11.714;2023-04-28T14:05:48;5.20;;;2.20;;
78027;SDS011;67235;45.638;11.714;2023-04-28T14:08:16;5.13;;;1.85;;
78027;SDS011;67235;45.638;11.714;2023-04-28T14:10:42;5.67;;;2.53;;
78027;SDS011;67235;45.638;11.714;2023-04-28T14:13:09;5.63;;;2.58;;
78027;SDS011;67235;45.638;11.714;2023-04-28T14:15:35;6.57;;;2.30;;
78027;SDS011;67235;45.638;11.714;2023-04-28T14:18:01;5.68;;;2.38;;
78027;SDS011;67235;45.638;11.714;2023-04-28T14:20:27;6.10;;;2.58;;
78027;SDS011;67235;45.638;11.714;2023-04-28T14:22:53;5.20;;;2.10;;
78027;SDS011;67235;45.638;11.714;2023-04-28T14:25:19;6.57;;;2.47;;
78027;SDS011;67235;45.638;11.714;2023-04-28T14:27:48;5.55;;;2.20;;
78027;SDS011;67235;45.638;11.714;2023-04-28T14:30:15;7.00;;;2.50;;
78027;SDS011;67235;45.638;11.714;2023-04-28T14:32:41;5.77;;;2.20;;
78027;SDS011;67235;45.638;11.714;2023-04-28T14:35:07;5.97;;;2.17;;
78027;SDS011;67235;45.638;11.714;2023-04-28T14:37:34;8.02;;;2.50;;
78027;SDS011;67235;45.638;11.714;2023-04-28T14:40:00;6.38;;;2.42;;
78027;SDS011;67235;45.638;11.714;2023-04-28T14:42:29;6.03;;;2.10;;
78027;SDS011;67235;45.638;11.714;2023-04-28T14:44:57;7.63;;;2.47;;
78027;SDS011;67235;45.638;11.714;2023-04-28T14:47:23;5.70;;;2.47;;
78027;SDS011;67235;45.638;11.714;2023-04-28T14:49:51;5.28;;;2.30;;
78027;SDS011;67235;45.638;11.714;2023-04-28T14:52:19;6.07;;;2.40;;
78027;SDS011;67235;45.638;11.714;2023-04-28T14:54:46;7.35;;;2.58;;
78027;SDS011;67235;45.638;11.714;2023-04-28T14:57:15;6.50;;;2.70;;
78027;SDS011;67235;45.638;11.714;2023-04-28T14:59:42;7.75;;;2.47;;
78027;SDS011;67235;45.638;11.714;2023-04-28T15:02:08;5.95;;;2.60;;